createdAt,value
2023-03-03T00:01:32.886Z,10.87
2023-03-03T00:04:02.269Z,13.70
2023-03-03T00:06:30.782Z,11.37
2023-03-03T00:08:59.016Z,11.43
2023-03-03T00:11:27.229Z,11.27
2023-03-03T00:13:57.589Z,9.57
2023-03-03T00:16:28.995Z,11.23
2023-03-03T00:18:57.717Z,12.83
2023-03-03T00:21:30.722Z,11.90
2023-03-03T00:24:18.714Z,10.93
2023-03-03T00:26:47.846Z,12.87
2023-03-03T00:29:30.715Z,13.83
2023-03-03T00:32:19.193Z,10.53
2023-03-03T00:34:47.766Z,12.93
2023-03-03T00:37:27.788Z,10.03
2023-03-03T00:39:57.963Z,15.47
2023-03-03T00:42:28.444Z,28.10
2023-03-03T00:45:00.305Z,11.63
2023-03-03T00:47:32.012Z,10.53
2023-03-03T00:50:34.630Z,12.07
2023-03-03T00:53:08.822Z,16.93
2023-03-03T00:55:37.241Z,18.40
2023-03-03T00:58:05.832Z,15.07
2023-03-03T01:00:34.443Z,17.93
2023-03-03T01:03:05.452Z,14.20
2023-03-03T01:05:33.874Z,12.20
2023-03-03T01:08:02.263Z,13.13
2023-03-03T01:10:35.422Z,10.67
2023-03-03T01:13:04.084Z,10.63
2023-03-03T01:15:32.148Z,9.10
2023-03-03T01:18:00.324Z,11.27
2023-03-03T01:20:28.296Z,10.60
2023-03-03T01:22:56.246Z,12.33
2023-03-03T01:25:24.243Z,15.37
2023-03-03T01:27:53.534Z,10.53
2023-03-03T01:30:21.672Z,15.70
2023-03-03T01:32:49.645Z,18.77
2023-03-03T01:35:17.975Z,14.20
2023-03-03T01:37:45.938Z,15.50
2023-03-03T01:40:17.287Z,20.33
2023-03-03T01:42:45.254Z,18.10
2023-03-03T01:45:23.745Z,16.17
2023-03-03T01:47:59.487Z,24.07
2023-03-03T01:50:37.904Z,24.77
2023-03-03T01:53:12.184Z,21.07
2023-03-03T01:55:42.192Z,22.40
2023-03-03T01:58:15.412Z,26.63
2023-03-03T02:00:51.575Z,20.70
2023-03-03T02:03:23.431Z,25.37
2023-03-03T02:05:53.784Z,24.67
2023-03-03T02:08:27.203Z,27.90
2023-03-03T02:10:56.922Z,29.10
2023-03-03T02:13:24.915Z,27.40
2023-03-03T02:15:54.621Z,26.77
2023-03-03T02:18:22.644Z,30.67
2023-03-03T02:20:58.587Z,29.10
2023-03-03T02:23:33.405Z,28.43
2023-03-03T02:26:08.627Z,29.40
2023-03-03T02:28:39.293Z,31.63
2023-03-03T02:31:10.963Z,30.63
2023-03-03T02:33:39.001Z,32.37
2023-03-03T02:36:07.445Z,31.93
2023-03-03T02:38:42.207Z,29.37
2023-03-03T02:41:18.439Z,28.27
2023-03-03T02:43:52.082Z,29.60
2023-03-03T02:46:20.252Z,27.27
2023-03-03T02:48:48.336Z,28.20
2023-03-03T02:51:16.307Z,26.93
2023-03-03T02:53:44.547Z,35.90
2023-03-03T02:56:13.896Z,28.27
2023-03-03T02:58:41.923Z,32.07
2023-03-03T03:01:10.145Z,26.73
2023-03-03T03:03:38.136Z,30.27
2023-03-03T03:06:06.401Z,25.90
2023-03-03T03:08:34.408Z,22.60
2023-03-03T03:11:02.476Z,25.07
2023-03-03T03:13:32.120Z,26.27
2023-03-03T03:16:00.692Z,23.60
2023-03-03T03:18:29.513Z,29.47
2023-03-03T03:20:57.459Z,26.67
2023-03-03T03:23:25.422Z,24.43
2023-03-03T03:25:53.418Z,28.47
2023-03-03T03:28:21.388Z,26.60
2023-03-03T03:30:53.033Z,24.17
2023-03-03T03:33:21.092Z,23.87
2023-03-03T03:35:49.534Z,23.57
2023-03-03T03:38:18.090Z,26.30
2023-03-03T03:40:46.082Z,19.90
2023-03-03T03:43:14.582Z,20.27
2023-03-03T03:45:43.799Z,27.27
2023-03-03T03:48:13.593Z,21.20
2023-03-03T03:50:41.707Z,20.13
2023-03-03T03:53:09.701Z,24.47
2023-03-03T03:55:37.705Z,23.33
2023-03-03T03:58:05.874Z,19.20
2023-03-03T04:00:33.846Z,19.70
2023-03-03T04:03:01.944Z,23.63
2023-03-03T04:05:31.346Z,21.47
2023-03-03T04:07:59.374Z,21.73
2023-03-03T04:10:27.432Z,21.50
2023-03-03T04:12:55.424Z,18.93
2023-03-03T04:15:23.400Z,23.23
2023-03-03T04:17:51.404Z,28.27
2023-03-03T04:20:19.544Z,18.23
2023-03-03T04:22:48.899Z,20.57
2023-03-03T04:25:18.140Z,24.03
2023-03-03T04:27:46.643Z,25.23
2023-03-03T04:30:17.188Z,25.97
2023-03-03T04:32:45.506Z,23.77
2023-03-03T04:35:13.560Z,23.83
2023-03-03T04:37:41.576Z,25.77
2023-03-03T04:40:12.112Z,21.90
2023-03-03T04:42:40.223Z,21.73
2023-03-03T04:45:09.211Z,25.70
2023-03-03T04:47:37.269Z,20.63
2023-03-03T04:50:05.749Z,21.20
2023-03-03T04:52:33.708Z,24.80
2023-03-03T04:55:01.769Z,25.87
2023-03-03T04:57:31.907Z,23.03
2023-03-03T04:59:59.869Z,23.67
2023-03-03T05:02:27.827Z,25.40
2023-03-03T05:04:55.962Z,25.73
2023-03-03T05:07:24.684Z,27.60
2023-03-03T05:09:52.708Z,24.73
2023-03-03T05:12:21.230Z,26.10
2023-03-03T05:14:50.574Z,25.63
2023-03-03T05:17:18.574Z,25.90
2023-03-03T05:19:46.624Z,25.50
2023-03-03T05:22:14.585Z,23.83
2023-03-03T05:24:43.895Z,25.80
2023-03-03T05:27:12.202Z,30.50
2023-03-03T05:29:40.154Z,26.43
2023-03-03T05:32:09.598Z,26.50
2023-03-03T05:37:15.600Z,28.27
2023-03-03T05:39:44.698Z,23.00
2023-03-03T05:42:14.059Z,28.43
2023-03-03T05:44:42.070Z,29.77
2023-03-03T05:47:11.522Z,36.40
2023-03-03T05:49:39.646Z,28.93
2023-03-03T05:52:09.156Z,31.77
2023-03-03T05:54:37.405Z,34.53
2023-03-03T05:57:05.459Z,28.90
2023-03-03T05:59:33.463Z,30.67
2023-03-03T06:02:01.544Z,31.27
2023-03-03T06:04:30.913Z,38.73
2023-03-03T06:06:58.897Z,29.50
2023-03-03T06:09:27.321Z,29.57
2023-03-03T06:11:55.518Z,33.30
2023-03-03T06:14:26.921Z,31.13
2023-03-03T06:16:55.152Z,28.77
2023-03-03T06:19:23.132Z,25.87
2023-03-03T06:21:52.505Z,26.00
2023-03-03T06:24:20.529Z,27.77
2023-03-03T06:26:48.589Z,27.27
2023-03-03T06:29:16.551Z,25.50
2023-03-03T06:31:44.765Z,24.17
2023-03-03T06:34:12.855Z,22.40
2023-03-03T06:36:40.882Z,21.20
2023-03-03T06:39:10.280Z,25.07
2023-03-03T06:41:38.417Z,23.53
2023-03-03T06:44:06.657Z,20.47
2023-03-03T06:46:34.656Z,25.73
2023-03-03T06:49:03.358Z,22.93
2023-03-03T06:51:33.696Z,19.27
2023-03-03T06:54:07.685Z,26.03
2023-03-03T06:56:38.408Z,24.40
2023-03-03T06:59:13.632Z,22.67
2023-03-03T07:01:42.847Z,24.50
2023-03-03T07:04:25.605Z,21.20
2023-03-03T07:06:53.833Z,22.20
2023-03-03T07:09:24.495Z,23.97
2023-03-03T07:11:57.047Z,21.13
2023-03-03T07:14:25.170Z,23.13
2023-03-03T07:16:57.324Z,23.17
2023-03-03T07:19:32.322Z,26.43
2023-03-03T07:22:01.821Z,30.77
2023-03-03T07:24:31.394Z,24.57
2023-03-03T07:27:12.147Z,27.77
2023-03-03T07:29:42.179Z,23.80
2023-03-03T07:32:31.024Z,23.57
2023-03-03T07:34:59.035Z,25.50
2023-03-03T07:37:32.624Z,28.00
2023-03-03T07:40:01.927Z,24.80
2023-03-03T07:42:39.520Z,28.43
2023-03-03T07:45:24.873Z,25.37
2023-03-03T07:47:52.978Z,26.87
2023-03-03T07:50:24.207Z,27.07
2023-03-03T07:52:57.187Z,29.60
2023-03-03T07:55:32.392Z,31.43
2023-03-03T07:58:23.083Z,24.97
2023-03-03T08:01:26.943Z,28.40
2023-03-03T08:03:55.190Z,25.13
2023-03-03T08:06:49.432Z,19.83
2023-03-03T08:09:47.238Z,20.17
2023-03-03T08:12:25.972Z,17.90
2023-03-03T08:14:56.623Z,18.00
2023-03-03T08:17:26.422Z,21.43
2023-03-03T08:19:55.883Z,20.03
2023-03-03T08:22:31.357Z,25.00
2023-03-03T08:24:59.362Z,19.10
2023-03-03T08:27:27.419Z,32.10
2023-03-03T08:29:56.765Z,24.93
2023-03-03T08:32:25.170Z,20.37
2023-03-03T08:34:53.599Z,18.37
2023-03-03T08:37:21.598Z,19.57
2023-03-03T08:39:49.731Z,17.13
2023-03-03T08:42:18.419Z,18.30
2023-03-03T08:44:46.357Z,19.73
2023-03-03T08:47:15.746Z,16.07
2023-03-03T08:49:43.788Z,17.40
2023-03-03T08:52:11.875Z,16.10
2023-03-03T08:54:39.819Z,16.33
2023-03-03T08:57:08.032Z,17.53
2023-03-03T08:59:38.997Z,16.90
2023-03-03T09:02:07.828Z,17.30
2023-03-03T09:04:37.534Z,15.37
2023-03-03T09:07:05.588Z,15.43
2023-03-03T09:09:33.687Z,14.87
2023-03-03T09:12:14.224Z,18.53
2023-03-03T09:14:42.243Z,17.47
2023-03-03T09:17:24.934Z,18.60
2023-03-03T09:19:56.918Z,14.73
2023-03-03T09:22:26.802Z,17.40
2023-03-03T09:24:58.147Z,19.13
2023-03-03T09:27:29.790Z,18.67
2023-03-03T09:30:02.340Z,18.83
2023-03-03T09:32:36.060Z,19.80
2023-03-03T09:37:59.629Z,22.27
2023-03-03T09:40:49.880Z,22.43
2023-03-03T09:43:24.870Z,23.00
2023-03-03T09:46:05.037Z,22.40
2023-03-03T09:48:50.364Z,20.33
2023-03-03T09:51:40.862Z,16.13
2023-03-03T09:54:22.497Z,20.30
2023-03-03T09:56:57.334Z,20.77
2023-03-03T09:59:36.766Z,17.57
2023-03-03T10:02:28.404Z,17.13
2023-03-03T10:05:22.738Z,18.17
2023-03-03T10:08:03.100Z,21.23
2023-03-03T10:10:54.319Z,22.07
2023-03-03T10:13:37.551Z,21.23
2023-03-03T10:16:32.235Z,21.03
2023-03-03T10:19:04.279Z,20.93
2023-03-03T10:21:38.013Z,19.10
2023-03-03T10:24:18.930Z,18.30
2023-03-03T10:27:13.863Z,19.93
2023-03-03T10:29:51.860Z,19.40
2023-03-03T10:32:41.612Z,21.77
2023-03-03T10:36:06.165Z,22.63
2023-03-03T10:38:49.752Z,20.90
2023-03-03T10:41:32.350Z,23.17
2023-03-03T10:44:19.103Z,24.30
2023-03-03T10:47:00.061Z,24.13
2023-03-03T10:49:43.811Z,18.40
2023-03-03T10:52:33.476Z,20.70
2023-03-03T10:55:32.251Z,27.70
2023-03-03T10:58:23.975Z,23.73
2023-03-03T11:01:01.357Z,20.93
2023-03-03T11:03:45.311Z,26.23
2023-03-03T11:06:19.880Z,22.53
2023-03-03T11:08:53.719Z,22.93
2023-03-03T11:11:32.485Z,21.37
2023-03-03T11:14:06.225Z,21.87
2023-03-03T11:16:45.166Z,23.43
2023-03-03T11:19:30.141Z,23.03
2023-03-03T11:22:07.699Z,22.53
2023-03-03T11:24:45.878Z,21.23
2023-03-03T11:27:33.569Z,19.70
2023-03-03T11:30:19.384Z,23.63
2023-03-03T11:32:55.245Z,26.03
2023-03-03T11:35:27.790Z,28.40
2023-03-03T11:38:08.041Z,27.67
2023-03-03T11:40:46.643Z,25.20
2023-03-03T11:43:35.738Z,28.33
2023-03-03T11:46:08.433Z,25.53
2023-03-03T11:48:43.951Z,23.70
2023-03-03T11:51:16.845Z,24.23
2023-03-03T11:54:02.189Z,29.73
2023-03-03T11:56:36.972Z,26.77
2023-03-03T11:59:24.480Z,32.80
2023-03-03T12:01:57.039Z,27.67
2023-03-03T12:04:31.016Z,22.73
2023-03-03T12:07:19.665Z,27.63
2023-03-03T12:09:55.527Z,29.83
2023-03-03T12:12:25.591Z,25.70
2023-03-03T12:15:08.536Z,34.87
2023-03-03T12:18:00.372Z,24.20
2023-03-03T12:20:36.202Z,31.80
2023-03-03T12:23:19.798Z,31.30
2023-03-03T12:25:52.906Z,34.67
2023-03-03T12:28:23.500Z,31.80
2023-03-03T12:31:22.670Z,31.90
2023-03-03T12:33:56.752Z,33.20
2023-03-03T12:36:45.456Z,31.43
2023-03-03T12:39:34.212Z,31.27
2023-03-03T12:42:10.085Z,30.67
2023-03-03T12:44:45.085Z,30.67
2023-03-03T12:47:19.891Z,31.13
2023-03-03T12:50:08.302Z,31.60
2023-03-03T12:52:49.372Z,28.87
2023-03-03T12:55:24.561Z,30.60
2023-03-03T12:57:59.936Z,31.07
2023-03-03T13:00:39.040Z,30.30
2023-03-03T13:03:15.814Z,28.43
2023-03-03T13:05:54.958Z,27.47
2023-03-03T13:08:39.228Z,27.27
2023-03-03T13:11:20.241Z,25.33
2023-03-03T13:13:54.547Z,27.57
2023-03-03T13:16:40.726Z,24.73
2023-03-03T13:19:13.560Z,25.03
2023-03-03T13:21:48.207Z,27.10
2023-03-03T13:24:24.583Z,24.23
2023-03-03T13:26:56.917Z,30.07
2023-03-03T13:29:28.373Z,26.53
2023-03-03T13:32:00.656Z,26.30
2023-03-03T13:34:40.767Z,23.77
2023-03-03T13:37:15.488Z,23.73
2023-03-03T13:39:57.107Z,24.90
2023-03-03T13:42:32.174Z,23.13
2023-03-03T13:45:03.269Z,20.93
2023-03-03T13:47:37.556Z,21.63
2023-03-03T13:50:20.009Z,24.10
2023-03-03T13:52:55.709Z,26.57
2023-03-03T13:55:31.987Z,28.90
2023-03-03T13:58:14.558Z,25.80
2023-03-03T14:00:55.072Z,22.97
2023-03-03T14:03:38.462Z,19.93
2023-03-03T14:06:11.470Z,25.77
2023-03-03T14:08:51.763Z,21.33
2023-03-03T14:11:27.158Z,23.50
2023-03-03T14:14:04.121Z,22.60
2023-03-03T14:16:44.882Z,19.33
2023-03-03T14:19:18.176Z,21.67
2023-03-03T14:21:53.004Z,19.53
2023-03-03T14:24:23.031Z,22.60
2023-03-03T14:26:54.022Z,20.07
2023-03-03T14:29:30.697Z,19.43
2023-03-03T14:32:00.572Z,20.13
2023-03-03T14:34:38.195Z,19.87
2023-03-03T14:37:24.904Z,17.47
2023-03-03T14:40:03.864Z,19.70
2023-03-03T14:42:38.051Z,17.60
2023-03-03T14:45:29.574Z,19.00
2023-03-03T14:47:58.735Z,20.13
2023-03-03T14:50:34.740Z,21.77
2023-03-03T14:53:23.827Z,20.80
2023-03-03T14:55:53.533Z,27.00
2023-03-03T14:58:40.288Z,25.80
2023-03-03T15:01:13.805Z,20.43
2023-03-03T15:03:47.936Z,20.50
2023-03-03T15:06:35.765Z,19.60
2023-03-03T15:09:30.072Z,18.43
2023-03-03T15:11:59.594Z,20.03
2023-03-03T15:14:33.319Z,20.77
2023-03-03T15:17:25.513Z,20.10
2023-03-03T15:20:19.850Z,19.07
2023-03-03T15:22:53.390Z,18.60
2023-03-03T15:25:42.414Z,21.77
2023-03-03T15:28:28.646Z,22.33
2023-03-03T15:31:04.511Z,14.97
2023-03-03T15:33:39.458Z,18.00
2023-03-03T15:36:13.523Z,18.43
2023-03-03T15:38:54.112Z,15.57
2023-03-03T15:41:35.344Z,15.53
2023-03-03T15:44:15.742Z,14.87
2023-03-03T15:46:57.305Z,15.53
2023-03-03T15:50:03.083Z,20.33
2023-03-03T15:52:44.348Z,15.93
2023-03-03T15:55:26.393Z,17.70
2023-03-03T15:58:10.091Z,16.83
2023-03-03T16:00:48.151Z,15.63
2023-03-03T16:03:21.858Z,19.90
2023-03-03T16:05:54.768Z,15.50
2023-03-03T16:08:27.068Z,21.07
2023-03-03T16:11:04.097Z,17.97
2023-03-03T16:13:47.605Z,16.77
2023-03-03T16:16:24.777Z,17.00
2023-03-03T16:19:07.751Z,19.10
2023-03-03T16:21:52.379Z,17.47
2023-03-03T16:24:31.038Z,20.70
2023-03-03T16:27:05.565Z,19.83
2023-03-03T16:29:51.561Z,17.63
2023-03-03T16:32:28.858Z,19.80
2023-03-03T16:35:01.430Z,17.03
2023-03-03T16:37:33.048Z,15.07
2023-03-03T16:40:10.226Z,20.70
2023-03-03T16:42:38.384Z,17.67
2023-03-03T16:45:22.132Z,15.00
2023-03-03T16:48:18.422Z,19.27
2023-03-03T16:51:05.481Z,18.40
2023-03-03T16:53:50.141Z,17.57
2023-03-03T16:56:23.314Z,19.47
2023-03-03T16:59:17.641Z,19.53
2023-03-03T17:01:57.112Z,17.97
2023-03-03T17:04:38.059Z,19.50
2023-03-03T17:07:26.634Z,17.83
2023-03-03T17:10:17.125Z,17.73
2023-03-03T17:13:10.069Z,19.53
2023-03-03T17:15:50.446Z,18.07
2023-03-03T17:18:32.657Z,17.27
2023-03-03T17:21:03.315Z,21.97
2023-03-03T17:23:44.106Z,19.37
2023-03-03T17:26:31.677Z,16.50
2023-03-03T17:29:23.998Z,19.70
2023-03-03T17:32:02.254Z,15.70
2023-03-03T17:34:42.915Z,18.73
2023-03-03T17:37:25.646Z,20.10
2023-03-03T17:40:17.081Z,22.47
2023-03-03T17:42:50.695Z,17.77
2023-03-03T17:45:20.993Z,23.50
2023-03-03T17:48:04.494Z,22.50
2023-03-03T17:50:53.733Z,26.97
2023-03-03T17:53:37.075Z,15.83
2023-03-03T17:56:16.802Z,19.73
2023-03-03T17:59:14.071Z,19.23
2023-03-03T18:02:05.773Z,22.40
2023-03-03T18:05:01.096Z,19.23
2023-03-03T18:07:51.395Z,19.70
2023-03-03T18:10:51.559Z,19.67
2023-03-03T18:13:35.644Z,25.03
2023-03-03T18:16:18.864Z,23.70
2023-03-03T18:19:06.817Z,21.03
2023-03-03T18:21:44.122Z,19.13
2023-03-03T18:24:31.803Z,19.67
2023-03-03T18:27:28.492Z,19.87
2023-03-03T18:30:27.654Z,20.00
2023-03-03T18:33:09.249Z,18.13
2023-03-03T18:35:39.569Z,18.40
2023-03-03T18:38:37.551Z,17.97
2023-03-03T18:41:06.604Z,17.33
2023-03-03T18:43:58.155Z,18.57
2023-03-03T18:46:55.966Z,15.93
2023-03-03T18:49:51.412Z,21.93
2023-03-03T18:52:23.070Z,17.57
2023-03-03T18:55:04.625Z,18.07
2023-03-03T18:57:32.829Z,19.50
2023-03-03T19:00:16.057Z,18.53
2023-03-03T19:02:54.075Z,21.67
2023-03-03T19:05:25.746Z,18.03
2023-03-03T19:07:59.668Z,20.33
2023-03-03T19:10:51.558Z,19.03
2023-03-03T19:13:42.581Z,20.13
2023-03-03T19:16:12.631Z,18.03
2023-03-03T19:19:03.129Z,17.03
2023-03-03T19:21:33.209Z,18.23
2023-03-03T19:24:03.564Z,17.80
2023-03-03T19:26:55.673Z,18.90
2023-03-03T19:29:45.280Z,22.10
2023-03-03T19:32:28.930Z,19.40
2023-03-03T19:35:14.188Z,16.50
2023-03-03T19:37:52.130Z,20.10
2023-03-03T19:40:26.228Z,22.33
2023-03-03T19:43:05.187Z,20.87
2023-03-03T19:45:46.427Z,20.30
2023-03-03T19:48:23.089Z,20.37
2023-03-03T19:50:58.629Z,18.70
2023-03-03T19:53:35.423Z,20.67
2023-03-03T19:56:26.594Z,21.60
2023-03-03T19:59:06.986Z,24.07
2023-03-03T20:01:48.779Z,22.03
2023-03-03T20:04:39.349Z,18.37
2023-03-03T20:07:23.904Z,26.10
2023-03-03T20:09:59.673Z,23.50
2023-03-03T20:12:40.468Z,21.43
2023-03-03T20:15:15.011Z,23.10
2023-03-03T20:17:55.629Z,23.43
2023-03-03T20:20:49.960Z,23.50
2023-03-03T20:23:24.154Z,25.53
2023-03-03T20:25:57.359Z,24.03
2023-03-03T20:28:45.024Z,23.00
2023-03-03T20:31:20.375Z,22.07
2023-03-03T20:33:56.005Z,26.80
2023-03-03T20:36:35.325Z,23.03
2023-03-03T20:39:09.116Z,24.37
2023-03-03T20:42:05.757Z,23.77
2023-03-03T20:44:45.631Z,22.70
2023-03-03T20:47:24.343Z,25.50
2023-03-03T20:50:10.025Z,22.73
2023-03-03T20:52:49.954Z,25.43
2023-03-03T20:55:26.102Z,24.20
2023-03-03T20:58:01.207Z,29.07
2023-03-03T21:00:36.023Z,23.07
2023-03-03T21:03:12.955Z,23.63
2023-03-03T21:05:57.595Z,23.07
2023-03-03T21:08:41.496Z,25.73
2023-03-03T21:11:11.057Z,25.70
2023-03-03T21:13:41.515Z,28.17
2023-03-03T21:16:15.773Z,21.50
2023-03-03T21:18:46.801Z,24.63
2023-03-03T21:21:14.961Z,29.03
2023-03-03T21:23:43.019Z,23.13
2023-03-03T21:26:12.523Z,22.57
2023-03-03T21:29:01.031Z,24.87
2023-03-03T21:31:45.397Z,28.33
2023-03-03T21:34:20.717Z,32.47
2023-03-03T21:36:49.906Z,28.57
2023-03-03T21:39:23.764Z,34.47
2023-03-03T21:41:55.370Z,31.13
2023-03-03T21:44:31.546Z,34.83
2023-03-03T21:46:59.652Z,46.73
2023-03-03T21:49:27.878Z,41.50
2023-03-03T21:51:56.791Z,42.83
2023-03-03T21:54:25.438Z,42.80
2023-03-03T21:56:55.197Z,45.00
2023-03-03T21:59:23.395Z,50.43
2023-03-03T22:01:51.439Z,49.23
2023-03-03T22:04:19.885Z,48.67
2023-03-03T22:06:47.918Z,51.10
2023-03-03T22:09:16.030Z,51.33
2023-03-03T22:11:44.066Z,51.33
2023-03-03T22:14:13.738Z,52.07
2023-03-03T22:16:42.344Z,55.87
2023-03-03T22:19:10.770Z,55.10
2023-03-03T22:21:40.143Z,55.37
2023-03-03T22:24:08.983Z,51.40
2023-03-03T22:26:37.179Z,48.50
2023-03-03T22:29:05.780Z,47.13
2023-03-03T22:31:35.430Z,52.10
2023-03-03T22:34:04.624Z,53.43
2023-03-03T22:36:32.649Z,54.57
2023-03-03T22:39:00.970Z,51.40
2023-03-03T22:41:29.048Z,52.70
2023-03-03T22:43:57.110Z,46.77
2023-03-03T22:46:25.374Z,46.27
2023-03-03T22:48:55.875Z,55.00
2023-03-03T22:51:26.901Z,53.17
2023-03-03T22:53:54.955Z,47.73
2023-03-03T22:56:22.978Z,49.47
2023-03-03T22:58:51.021Z,48.40
2023-03-03T23:01:19.084Z,50.70
2023-03-03T23:03:47.130Z,52.00
2023-03-03T23:06:16.631Z,52.70
2023-03-03T23:08:44.804Z,48.07
2023-03-03T23:11:12.835Z,50.40
2023-03-03T23:13:40.915Z,49.20
2023-03-03T23:16:09.170Z,53.10
2023-03-03T23:18:37.266Z,52.17
2023-03-03T23:21:05.578Z,51.00
2023-03-03T23:23:35.261Z,51.33
2023-03-03T23:26:03.375Z,54.33
2023-03-03T23:28:31.389Z,53.60
2023-03-03T23:30:59.441Z,58.70
2023-03-03T23:33:27.573Z,64.27
2023-03-03T23:38:29.037Z,53.13
2023-03-03T23:40:58.375Z,48.47
2023-03-03T23:43:26.352Z,51.77
2023-03-03T23:45:54.338Z,57.20
2023-03-03T23:48:22.327Z,55.60
2023-03-03T23:50:50.632Z,55.90
2023-03-03T23:53:19.250Z,50.90
2023-03-03T23:55:47.259Z,54.90
2023-03-03T23:58:16.576Z,47.97
